OMDM/NHD METAR and TAF weather

Enter ICAO airport designator
Station Type Date Time Source
OMDM METAR 2019/06/19 06:30 UTC NOAA

OMDM 190630Z 23009KT 200V270 CAVOK 39/20 Q0996 A2941


Station Type Date Time Source
OMDM Decoded METAR 2019/06/19 06:30 UTC NOAA

Station name not available
Jun 19, 2019 - 02:30 AM EDT / 2019.06.19 0630 UTC
Wind: from the SW (230 degrees) at 10 MPH (9 KT) (direction variable):0
Visibility: greater than 7 mile(s):0
Temperature: 102 F (39 C)
Heat index: 108.0 F (42.2 C):1
Dew Point: 68 F (20 C)
Relative Humidity: 33%
Pressure (altimeter): 29.41 in. Hg (995 hPa)
ob: OMDM 190630Z 23009KT 200V270 CAVOK 39/20 Q0996 A2941
cycle: 6

Station Type Date Time Source
OMDM TAF 2015/04/11 18:25 UTC NOAA

TAF OMDM 111725Z 1118/1224 06005KT 7000 NSC
BECMG 1203/1205 19013KT PROB30
TEMPO 1206/1212 21008G18KT 4000 DU
BECMG 1213/1215 35010KT
BECMG 1218/1220 12009KT

Example: see airport list